Time;durP1;ratioP1;P1;durP2;ratioP2;P2;SDS_P1;SDS_P2;PMS_P1;PMS_P2;Temp;Humidity;BMP_temperature;BMP_pressure;BME280_temperature;BME280_humidity;BME280_pressure;Samples;Min_cycle;Max_cycle;Signal;HPM_P1;HPM_P2
2022/08/17 00:00:25;;;;;;;27.33;23.77;;;;;;;;;;5063372;28;20134;-63
2022/08/17 00:03:00;;;;;;;32.20;23.63;;;;;;;;;;5063801;28;20052;-63
2022/08/17 00:05:27;;;;;;;27.08;22.60;;;;;;;;;;5067163;28;20052;-63
2022/08/17 00:07:54;;;;;;;25.05;22.42;;;;;;;;;;5065076;28;20056;-63
2022/08/17 00:10:22;;;;;;;27.20;22.75;;;;;;;;;;5063641;28;20040;-63
2022/08/17 00:12:51;;;;;;;26.80;23.05;;;;;;;;;;5064628;28;20048;-63
2022/08/17 00:15:23;;;;;;;25.52;22.40;;;;;;;;;;5065138;28;20190;-63
2022/08/17 00:17:51;;;;;;;24.97;21.90;;;;;;;;;;5062778;28;20056;-63
2022/08/17 00:20:18;;;;;;;26.38;21.88;;;;;;;;;;5062555;28;20397;-63
2022/08/17 00:22:46;;;;;;;26.33;23.48;;;;;;;;;;5066361;28;20052;-63
2022/08/17 00:25:14;;;;;;;25.58;22.25;;;;;;;;;;5064838;28;20121;-63
2022/08/17 00:27:42;;;;;;;26.52;23.27;;;;;;;;;;5063100;28;20853;-63
2022/08/17 00:30:11;;;;;;;24.27;21.67;;;;;;;;;;5060283;28;20094;-63
2022/08/17 00:32:39;;;;;;;26.17;23.30;;;;;;;;;;5063783;28;20067;-63
2022/08/17 00:35:08;;;;;;;25.52;22.60;;;;;;;;;;5064587;28;20477;-63
2022/08/17 00:37:35;;;;;;;27.23;24.27;;;;;;;;;;5063303;28;20052;-63
2022/08/17 00:40:03;;;;;;;25.77;23.08;;;;;;;;;;5061170;28;20052;-62
2022/08/17 00:42:30;;;;;;;26.80;22.40;;;;;;;;;;5062521;28;20049;-63
2022/08/17 00:44:57;;;;;;;29.35;23.85;;;;;;;;;;5066710;28;20047;-63
2022/08/17 00:47:26;;;;;;;27.50;23.30;;;;;;;;;;5062093;28;20102;-63
2022/08/17 00:49:53;;;;;;;28.92;23.00;;;;;;;;;;5064616;28;20510;-63
2022/08/17 00:52:22;;;;;;;26.17;23.40;;;;;;;;;;5063911;28;20148;-63
2022/08/17 00:54:52;;;;;;;25.70;22.92;;;;;;;;;;5057993;28;20048;-63
2022/08/17 00:57:21;;;;;;;25.13;22.52;;;;;;;;;;5062764;28;20495;-63
2022/08/17 00:59:50;;;;;;;25.15;22.55;;;;;;;;;;5062867;28;20051;-63
2022/08/17 01:02:18;;;;;;;25.73;22.85;;;;;;;;;;5062278;28;20048;-63
2022/08/17 01:04:48;;;;;;;26.10;23.27;;;;;;;;;;5059512;28;20056;-63
2022/08/17 01:07:16;;;;;;;31.45;25.92;;;;;;;;;;5063762;28;20105;-63
2022/08/17 01:09:44;;;;;;;26.13;23.42;;;;;;;;;;5064906;28;20052;-62
2022/08/17 01:12:11;;;;;;;27.08;23.48;;;;;;;;;;5064424;28;20044;-63
2022/08/17 01:14:39;;;;;;;27.35;24.55;;;;;;;;;;5060527;28;20458;-63
2022/08/17 01:17:07;;;;;;;31.02;25.00;;;;;;;;;;5068756;28;20052;-63
2022/08/17 01:19:36;;;;;;;23.90;20.23;;;;;;;;;;5060372;28;20068;-63
2022/08/17 01:22:09;;;;;;;26.83;22.13;;;;;;;;;;5062165;28;20352;-63
2022/08/17 01:24:37;;;;;;;23.77;21.15;;;;;;;;;;5059282;28;20111;-63
2022/08/17 01:27:05;;;;;;;25.10;22.45;;;;;;;;;;5058916;28;20052;-63
2022/08/17 01:29:33;;;;;;;25.02;22.52;;;;;;;;;;5061000;28;20484;-63
2022/08/17 01:32:02;;;;;;;27.80;24.17;;;;;;;;;;5058930;28;20663;-63
2022/08/17 01:34:29;;;;;;;27.33;23.75;;;;;;;;;;5060718;28;20040;-63
2022/08/17 01:36:57;;;;;;;27.58;23.83;;;;;;;;;;5052311;28;20089;-63
2022/08/17 01:39:26;;;;;;;24.10;21.52;;;;;;;;;;5054101;28;20064;-63
2022/08/17 01:41:59;;;;;;;24.42;20.70;;;;;;;;;;5056279;28;20049;-63
2022/08/17 01:44:27;;;;;;;22.98;20.52;;;;;;;;;;5056116;28;20049;-63
2022/08/17 01:46:55;;;;;;;22.60;20.40;;;;;;;;;;5058413;28;20788;-63
2022/08/17 01:49:22;;;;;;;20.67;18.45;;;;;;;;;;5056355;28;20056;-63
2022/08/17 01:51:49;;;;;;;19.17;17.20;;;;;;;;;;5060389;28;20057;-63
2022/08/17 01:54:17;;;;;;;20.92;18.38;;;;;;;;;;5056303;28;20071;-64
2022/08/17 01:56:46;;;;;;;20.55;18.38;;;;;;;;;;5057848;28;20056;-63
2022/08/17 01:59:15;;;;;;;19.85;17.83;;;;;;;;;;5061418;28;20057;-63
2022/08/17 02:01:42;;;;;;;19.77;17.92;;;;;;;;;;5055806;28;20552;-63
2022/08/17 02:04:09;;;;;;;19.92;17.58;;;;;;;;;;5062456;28;20132;-63
2022/08/17 02:06:37;;;;;;;19.92;17.92;;;;;;;;;;5060962;28;20071;-63
2022/08/17 02:09:06;;;;;;;19.05;17.05;;;;;;;;;;5059853;28;20783;-63
2022/08/17 02:11:36;;;;;;;19.48;17.50;;;;;;;;;;5069925;28;20078;-63
2022/08/17 02:14:04;;;;;;;18.65;16.77;;;;;;;;;;5068224;28;20045;-63
2022/08/17 02:16:32;;;;;;;21.05;18.95;;;;;;;;;;5067223;28;20053;-63
2022/08/17 02:19:00;;;;;;;16.17;14.57;;;;;;;;;;5067322;28;20604;-62
2022/08/17 02:21:27;;;;;;;15.98;14.48;;;;;;;;;;5057475;28;20079;-63
2022/08/17 02:23:55;;;;;;;16.23;14.52;;;;;;;;;;5058030;28;20060;-63
2022/08/17 02:26:22;;;;;;;13.32;12.02;;;;;;;;;;5062095;28;20056;-63
2022/08/17 02:28:49;;;;;;;12.52;11.23;;;;;;;;;;5070967;28;20062;-63
2022/08/17 02:31:17;;;;;;;13.88;11.73;;;;;;;;;;5068570;28;20048;-62
2022/08/17 02:33:45;;;;;;;14.18;12.80;;;;;;;;;;5061276;28;20049;-63
2022/08/17 02:36:13;;;;;;;16.50;12.00;;;;;;;;;;5068175;28;20102;-62
2022/08/17 02:38:41;;;;;;;14.80;13.40;;;;;;;;;;5063235;28;20102;-63
2022/08/17 02:41:08;;;;;;;15.95;14.40;;;;;;;;;;5067009;28;20076;-63
2022/08/17 02:43:35;;;;;;;16.15;13.95;;;;;;;;;;5063345;28;20057;-63
2022/08/17 02:46:03;;;;;;;25.42;15.18;;;;;;;;;;5068942;28;20060;-62
2022/08/17 02:48:30;;;;;;;20.60;16.40;;;;;;;;;;5059987;28;20053;-63
2022/08/17 02:50:59;;;;;;;15.75;13.88;;;;;;;;;;5061162;28;20048;-62
2022/08/17 02:53:26;;;;;;;20.25;15.57;;;;;;;;;;5062920;28;20052;-63
2022/08/17 02:55:54;;;;;;;24.27;15.15;;;;;;;;;;5063097;28;20040;-62
2022/08/17 02:58:21;;;;;;;83.15;15.80;;;;;;;;;;5067137;28;20041;-63
2022/08/17 03:00:48;;;;;;;41.28;14.88;;;;;;;;;;5070202;28;20052;-62
2022/08/17 03:03:17;;;;;;;15.57;14.02;;;;;;;;;;5064625;28;20131;-63
2022/08/17 03:05:46;;;;;;;266.30;17.40;;;;;;;;;;5064065;28;20044;-62
2022/08/17 03:08:16;;;;;;;233.80;17.05;;;;;;;;;;5064400;28;20044;-63
2022/08/17 03:10:44;;;;;;;159.57;16.63;;;;;;;;;;5065400;28;20086;-63
2022/08/17 03:13:13;;;;;;;92.20;13.68;;;;;;;;;;5063254;28;20499;-63
2022/08/17 03:15:43;;;;;;;114.07;14.93;;;;;;;;;;5057915;28;20044;-63
2022/08/17 03:18:11;;;;;;;51.00;12.38;;;;;;;;;;5064781;28;20102;-63
2022/08/17 03:20:39;;;;;;;12.57;11.38;;;;;;;;;;5065841;28;20052;-63
2022/08/17 03:23:06;;;;;;;12.60;11.30;;;;;;;;;;5064954;28;20400;-62
2022/08/17 03:25:36;;;;;;;19.65;10.73;;;;;;;;;;5063592;28;20056;-63
2022/08/17 03:28:04;;;;;;;19.65;10.68;;;;;;;;;;5062829;28;20130;-63
2022/08/17 03:30:31;;;;;;;10.45;9.35;;;;;;;;;;5064212;28;20052;-63
2022/08/17 03:33:00;;;;;;;12.32;9.35;;;;;;;;;;5063680;28;20048;-62
2022/08/17 03:35:29;;;;;;;19.48;10.57;;;;;;;;;;5063434;28;20125;-63
2022/08/17 03:37:56;;;;;;;12.43;11.13;;;;;;;;;;5060573;28;20611;-63
2022/08/17 03:40:24;;;;;;;13.98;12.68;;;;;;;;;;5066267;28;20127;-63
2022/08/17 03:42:53;;;;;;;28.92;13.35;;;;;;;;;;5065397;28;20053;-63
2022/08/17 03:56:42;;;;;;;15.80;14.20;;;;;;;;;;5026846;28;20056;-63
2022/08/17 03:59:11;;;;;;;18.00;16.13;;;;;;;;;;5063730;28;20495;-63
2022/08/17 04:01:39;;;;;;;17.60;15.70;;;;;;;;;;5067723;28;20299;-63
2022/08/17 04:04:07;;;;;;;15.80;14.20;;;;;;;;;;5060215;28;20064;-63
2022/08/17 04:06:35;;;;;;;20.35;18.15;;;;;;;;;;5060583;28;20113;-63
2022/08/17 04:09:02;;;;;;;45.67;19.05;;;;;;;;;;5066025;28;20044;-63
2022/08/17 04:11:29;;;;;;;29.38;20.10;;;;;;;;;;5064382;28;20051;-63
2022/08/17 04:13:57;;;;;;;30.65;18.48;;;;;;;;;;5055786;28;20044;-63
2022/08/17 04:16:26;;;;;;;65.95;20.55;;;;;;;;;;5062364;28;20056;-63
2022/08/17 04:18:53;;;;;;;23.13;20.63;;;;;;;;;;5062541;28;20053;-63
2022/08/17 04:21:21;;;;;;;25.05;19.23;;;;;;;;;;5062450;28;20055;-63
2022/08/17 04:23:48;;;;;;;24.58;19.70;;;;;;;;;;5063621;28;20478;-62
2022/08/17 04:26:15;;;;;;;32.55;21.27;;;;;;;;;;5066966;28;20056;-62
2022/08/17 04:28:43;;;;;;;119.88;26.13;;;;;;;;;;5060676;28;20411;-63
2022/08/17 04:31:11;;;;;;;26.73;22.45;;;;;;;;;;5066252;28;20106;-62
2022/08/17 04:33:41;;;;;;;44.65;21.15;;;;;;;;;;5059472;28;20093;-63
2022/08/17 04:36:08;;;;;;;22.42;19.13;;;;;;;;;;5062787;28;20053;-63
2022/08/17 04:38:37;;;;;;;103.18;21.67;;;;;;;;;;5065161;28;20113;-63
2022/08/17 04:43:53;;;;;;;34.88;20.90;;;;;;;;;;5060479;28;20169;-63
2022/08/17 04:46:23;;;;;;;23.08;19.63;;;;;;;;;;5063309;28;20047;-63
2022/08/17 04:48:52;;;;;;;22.10;18.17;;;;;;;;;;5058677;28;20063;-63
2022/08/17 04:51:22;;;;;;;31.50;18.05;;;;;;;;;;5061964;28;20040;-63
2022/08/17 04:53:50;;;;;;;37.15;20.05;;;;;;;;;;5066080;28;20044;-63
2022/08/17 04:56:17;;;;;;;51.35;16.77;;;;;;;;;;5056626;28;20075;-63
2022/08/17 04:58:46;;;;;;;16.77;15.18;;;;;;;;;;5064390;28;20048;-63
2022/08/17 05:01:13;;;;;;;17.45;15.43;;;;;;;;;;5061570;28;20045;-63
2022/08/17 05:03:41;;;;;;;17.55;15.82;;;;;;;;;;5063698;28;20399;-62
2022/08/17 05:06:10;;;;;;;19.10;17.20;;;;;;;;;;5061043;28;20511;-62
2022/08/17 05:08:37;;;;;;;19.40;17.50;;;;;;;;;;5063401;28;20064;-63
2022/08/17 05:11:05;;;;;;;19.38;17.48;;;;;;;;;;5067045;28;20052;-63
2022/08/17 05:13:32;;;;;;;20.33;15.88;;;;;;;;;;5062269;28;20048;-63
2022/08/17 05:16:00;;;;;;;18.08;16.17;;;;;;;;;;5064524;28;20052;-63
2022/08/17 05:18:28;;;;;;;16.15;14.48;;;;;;;;;;5062236;28;20609;-63
2022/08/17 05:20:55;;;;;;;27.30;16.42;;;;;;;;;;5068554;28;20591;-63
2022/08/17 05:23:25;;;;;;;40.60;18.88;;;;;;;;;;5070558;28;20053;-63
2022/08/17 05:25:55;;;;;;;20.98;18.83;;;;;;;;;;5061157;28;20044;-63
2022/08/17 05:28:23;;;;;;;150.93;21.08;;;;;;;;;;5062843;28;20488;-63
2022/08/17 05:30:50;;;;;;;26.13;21.48;;;;;;;;;;5064559;28;20609;-63
2022/08/17 05:33:19;;;;;;;72.35;23.75;;;;;;;;;;5063380;28;20048;-63
2022/08/17 05:35:47;;;;;;;38.00;25.80;;;;;;;;;;5056269;28;20052;-63
2022/08/17 05:38:14;;;;;;;29.35;23.67;;;;;;;;;;5062871;28;20435;-63
2022/08/17 05:40:44;;;;;;;34.65;27.35;;;;;;;;;;5057602;28;20115;-63
2022/08/17 05:43:13;;;;;;;31.85;24.10;;;;;;;;;;5054388;28;20048;-63
2022/08/17 05:45:41;;;;;;;32.35;26.20;;;;;;;;;;5071575;28;20048;-63
2022/08/17 05:48:09;;;;;;;32.25;25.33;;;;;;;;;;5057170;28;20052;-63
2022/08/17 05:50:41;;;;;;;38.15;29.52;;;;;;;;;;5062114;28;20063;-63
2022/08/17 05:53:13;;;;;;;38.95;29.30;;;;;;;;;;5050652;28;20060;-63
2022/08/17 05:55:46;;;;;;;44.25;33.05;;;;;;;;;;5055113;28;20071;-63
2022/08/17 05:58:18;;;;;;;49.55;36.70;;;;;;;;;;5054487;28;20423;-64
2022/08/17 06:00:49;;;;;;;39.50;31.77;;;;;;;;;;5053778;28;20101;-63
2022/08/17 06:03:24;;;;;;;36.53;30.10;;;;;;;;;;5054311;28;20045;-64
2022/08/17 06:06:00;;;;;;;46.70;37.20;;;;;;;;;;5058772;28;20102;-63
2022/08/17 06:08:32;;;;;;;46.13;35.67;;;;;;;;;;5061443;28;20060;-63
2022/08/17 06:11:02;;;;;;;40.53;33.17;;;;;;;;;;5052114;28;20053;-63
2022/08/17 06:13:37;;;;;;;42.47;33.90;;;;;;;;;;5058327;28;20051;-63
2022/08/17 06:16:08;;;;;;;51.70;39.20;;;;;;;;;;5059852;28;20049;-63
2022/08/17 06:18:39;;;;;;;50.95;39.97;;;;;;;;;;5059841;28;20538;-63
2022/08/17 06:21:07;;;;;;;42.83;34.72;;;;;;;;;;5055446;28;20061;-62
2022/08/17 06:23:38;;;;;;;41.95;35.60;;;;;;;;;;5059327;28;20102;-63
2022/08/17 06:26:09;;;;;;;43.17;36.45;;;;;;;;;;5054440;28;20696;-62
2022/08/17 06:28:39;;;;;;;53.28;41.22;;;;;;;;;;5052590;28;20056;-63
2022/08/17 06:31:12;;;;;;;47.95;38.50;;;;;;;;;;5056992;28;20047;-63
2022/08/17 06:33:44;;;;;;;45.83;36.78;;;;;;;;;;5056249;28;20041;-63
2022/08/17 06:36:17;;;;;;;43.08;34.95;;;;;;;;;;5058326;28;20056;-63
2022/08/17 06:38:50;;;;;;;42.95;35.17;;;;;;;;;;5052848;28;20063;-63
2022/08/17 06:41:20;;;;;;;42.40;34.78;;;;;;;;;;5056764;28;20094;-63
2022/08/17 06:43:55;;;;;;;45.00;36.15;;;;;;;;;;5052481;28;20059;-63
2022/08/17 06:46:24;;;;;;;48.17;37.97;;;;;;;;;;5063443;28;20048;-64
2022/08/17 06:48:56;;;;;;;46.22;36.65;;;;;;;;;;5059113;28;20052;-63
2022/08/17 06:51:35;;;;;;;49.40;37.07;;;;;;;;;;5060706;28;20070;-63
2022/08/17 06:54:05;;;;;;;52.60;40.25;;;;;;;;;;5058355;28;20286;-63
2022/08/17 06:56:35;;;;;;;64.03;45.97;;;;;;;;;;5057830;28;20059;-63
2022/08/17 06:59:06;;;;;;;72.32;49.80;;;;;;;;;;5060313;28;20051;-63
2022/08/17 07:01:35;;;;;;;78.28;50.85;;;;;;;;;;5059090;28;20075;-63
2022/08/17 07:04:05;;;;;;;56.60;43.25;;;;;;;;;;5057525;28;20048;-63
2022/08/17 07:06:34;;;;;;;77.20;51.70;;;;;;;;;;5056913;28;20055;-62
2022/08/17 07:09:04;;;;;;;109.30;57.55;;;;;;;;;;5073860;28;20053;-63
2022/08/17 07:11:32;;;;;;;73.13;48.85;;;;;;;;;;5054940;28;20555;-64
2022/08/17 07:14:07;;;;;;;71.20;48.95;;;;;;;;;;5063002;28;20048;-63
2022/08/17 07:16:38;;;;;;;70.47;45.22;;;;;;;;;;5059339;28;20572;-64
2022/08/17 07:19:06;;;;;;;59.92;41.88;;;;;;;;;;5062820;28;20075;-63
2022/08/17 07:21:40;;;;;;;79.07;46.55;;;;;;;;;;5065678;28;20056;-64
2022/08/17 07:24:13;;;;;;;59.38;41.88;;;;;;;;;;5053691;28;20045;-63
2022/08/17 07:26:41;;;;;;;72.75;47.78;;;;;;;;;;5057083;28;20045;-63
2022/08/17 07:29:10;;;;;;;60.97;43.80;;;;;;;;;;5060529;28;20056;-63
2022/08/17 07:31:38;;;;;;;57.97;41.05;;;;;;;;;;5056908;28;20049;-63
2022/08/17 07:34:07;;;;;;;53.67;40.03;;;;;;;;;;5056966;28;20484;-63
2022/08/17 07:36:34;;;;;;;51.35;38.50;;;;;;;;;;5064887;28;20127;-63
2022/08/17 07:39:02;;;;;;;52.58;40.40;;;;;;;;;;5061584;28;20049;-63
2022/08/17 07:41:32;;;;;;;51.92;41.53;;;;;;;;;;5061585;28;20048;-64
2022/08/17 07:43:59;;;;;;;65.82;47.70;;;;;;;;;;5057154;28;20098;-64
2022/08/17 07:49:19;;;;;;;60.55;43.75;;;;;;;;;;5076399;28;20052;-64
2022/08/17 07:51:58;;;;;;;68.77;46.40;;;;;;;;;;5061647;28;20044;-64
2022/08/17 07:54:28;;;;;;;66.43;45.72;;;;;;;;;;5061910;28;20170;-63
2022/08/17 07:56:56;;;;;;;67.10;47.13;;;;;;;;;;5061296;28;20264;-63
2022/08/17 07:59:24;;;;;;;61.95;44.47;;;;;;;;;;5052588;28;20510;-64
2022/08/17 08:02:06;;;;;;;64.88;46.60;;;;;;;;;;5054439;28;20114;-64
2022/08/17 08:04:36;;;;;;;57.30;42.10;;;;;;;;;;5063127;28;20438;-64
2022/08/17 08:07:06;;;;;;;53.50;41.83;;;;;;;;;;5062707;28;20102;-64
2022/08/17 08:09:35;;;;;;;64.13;47.38;;;;;;;;;;5064063;28;20040;-64
2022/08/17 08:12:25;;;;;;;56.42;43.92;;;;;;;;;;5064353;28;20056;-64
2022/08/17 08:14:55;;;;;;;56.50;43.45;;;;;;;;;;5062244;28;20060;-65
2022/08/17 08:17:26;;;;;;;49.28;39.70;;;;;;;;;;5059371;28;20048;-65
2022/08/17 08:19:53;;;;;;;46.75;38.60;;;;;;;;;;5058451;28;20063;-65
2022/08/17 08:22:25;;;;;;;47.55;38.78;;;;;;;;;;5058993;28;20048;-65
2022/08/17 08:24:56;;;;;;;49.33;38.28;;;;;;;;;;5060860;28;20044;-64
2022/08/17 08:27:31;;;;;;;45.83;39.72;;;;;;;;;;5052054;28;20045;-65
2022/08/17 08:30:03;;;;;;;44.33;36.38;;;;;;;;;;5059940;28;20488;-65
2022/08/17 08:32:41;;;;;;;81.03;53.53;;;;;;;;;;5054281;28;20094;-65
2022/08/17 08:35:11;;;;;;;73.70;50.67;;;;;;;;;;5063688;28;20062;-65
2022/08/17 08:37:44;;;;;;;87.88;55.33;;;;;;;;;;5061022;28;20063;-65
2022/08/17 08:40:20;;;;;;;88.30;51.25;;;;;;;;;;5059837;28;20498;-65
2022/08/17 08:42:52;;;;;;;66.05;46.42;;;;;;;;;;5059397;28;20144;-64
2022/08/17 08:45:23;;;;;;;84.47;49.92;;;;;;;;;;5064581;28;20049;-64
2022/08/17 08:47:58;;;;;;;76.72;49.70;;;;;;;;;;5063627;28;20098;-65
2022/08/17 08:50:28;;;;;;;60.45;40.95;;;;;;;;;;5060464;28;20051;-64
2022/08/17 08:53:13;;;;;;;122.75;53.58;;;;;;;;;;5057113;28;20056;-64
2022/08/17 08:55:48;;;;;;;73.50;45.53;;;;;;;;;;5061724;28;20055;-64
2022/08/17 08:58:18;;;;;;;71.75;44.10;;;;;;;;;;5050550;28;20049;-63
2022/08/17 09:00:47;;;;;;;49.25;37.17;;;;;;;;;;5057259;28;20044;-63
2022/08/17 09:03:36;;;;;;;85.30;44.45;;;;;;;;;;5058175;28;20091;-63
2022/08/17 09:06:07;;;;;;;76.35;46.58;;;;;;;;;;5064344;28;20071;-63
2022/08/17 09:08:43;;;;;;;79.70;42.83;;;;;;;;;;5059668;28;20503;-63
2022/08/17 09:11:12;;;;;;;45.38;33.45;;;;;;;;;;5059462;28;20135;-63
2022/08/17 09:13:42;;;;;;;86.63;44.55;;;;;;;;;;5061478;28;20053;-63
2022/08/17 09:16:14;;;;;;;71.30;39.63;;;;;;;;;;5061052;28;20052;-63
2022/08/17 09:18:50;;;;;;;44.13;32.25;;;;;;;;;;5062393;28;20048;-63
2022/08/17 09:21:20;;;;;;;81.00;42.10;;;;;;;;;;5060821;28;20418;-63
2022/08/17 09:23:58;;;;;;;73.57;41.88;;;;;;;;;;5053432;28;20048;-63
2022/08/17 09:26:29;;;;;;;40.58;31.63;;;;;;;;;;5060894;28;20101;-63
2022/08/17 09:29:00;;;;;;;56.75;35.10;;;;;;;;;;5055083;28;20191;-62
2022/08/17 09:31:34;;;;;;;95.95;41.90;;;;;;;;;;5058765;28;20134;-62
2022/08/17 09:34:03;;;;;;;82.70;39.58;;;;;;;;;;5058371;28;20110;-62
2022/08/17 09:36:34;;;;;;;77.65;41.05;;;;;;;;;;5060808;28;20044;-62
2022/08/17 09:39:03;;;;;;;95.07;46.28;;;;;;;;;;5062267;28;20044;-62
2022/08/17 09:41:34;;;;;;;116.00;53.97;;;;;;;;;;5059277;28;20521;-62
2022/08/17 09:44:05;;;;;;;50.42;35.58;;;;;;;;;;5059776;28;20045;-62
2022/08/17 09:46:35;;;;;;;63.42;36.28;;;;;;;;;;5060860;28;20066;-62
2022/08/17 09:49:08;;;;;;;38.33;28.23;;;;;;;;;;5061484;28;20535;-62
2022/08/17 09:51:38;;;;;;;46.67;32.40;;;;;;;;;;5057769;28;20049;-62
2022/08/17 09:54:11;;;;;;;30.23;21.60;;;;;;;;;;5063097;28;20060;-62
2022/08/17 09:56:41;;;;;;;21.90;18.30;;;;;;;;;;5056605;28;20049;-61
2022/08/17 09:59:16;;;;;;;28.15;20.27;;;;;;;;;;5058712;28;20052;-61
2022/08/17 10:01:45;;;;;;;27.90;22.02;;;;;;;;;;5056132;28;20052;-62
2022/08/17 10:04:23;;;;;;;30.38;18.85;;;;;;;;;;5057355;28;20044;-61
2022/08/17 10:06:53;;;;;;;32.47;19.73;;;;;;;;;;5063498;28;20087;-61
2022/08/17 10:09:25;;;;;;;35.00;20.67;;;;;;;;;;5049451;28;20142;-62
2022/08/17 10:14:43;;;;;;;52.33;23.77;;;;;;;;;;5065157;28;20047;-62
2022/08/17 10:17:15;;;;;;;94.25;31.55;;;;;;;;;;5059556;28;20051;-62
2022/08/17 10:19:49;;;;;;;30.67;17.27;;;;;;;;;;5057964;28;20060;-61
2022/08/17 10:27:53;;;;;;;26.45;17.67;;;;;;;;;;5064867;28;20785;-62
2022/08/17 10:30:21;;;;;;;24.02;16.77;;;;;;;;;;5068394;28;20044;-62
2022/08/17 10:32:51;;;;;;;16.80;12.35;;;;;;;;;;5061189;28;20723;-62
2022/08/17 10:35:33;;;;;;;23.85;16.13;;;;;;;;;;5060512;28;20057;-62
2022/08/17 10:38:18;;;;;;;57.17;26.42;;;;;;;;;;5067282;28;20124;-61
2022/08/17 10:40:48;;;;;;;40.67;16.83;;;;;;;;;;5067528;28;20519;-62
2022/08/17 10:43:24;;;;;;;55.65;24.00;;;;;;;;;;5066039;28;20522;-61
2022/08/17 10:45:54;;;;;;;32.22;15.18;;;;;;;;;;5063003;28;20056;-62
2022/08/17 10:48:29;;;;;;;28.20;19.60;;;;;;;;;;5063406;28;20150;-62
2022/08/17 10:51:01;;;;;;;75.40;38.42;;;;;;;;;;5064119;28;20048;-62
2022/08/17 10:53:47;;;;;;;39.92;26.77;;;;;;;;;;5066928;28;20056;-62
2022/08/17 10:56:39;;;;;;;15.80;13.38;;;;;;;;;;5062716;28;20061;-62
2022/08/17 10:59:07;;;;;;;15.32;10.88;;;;;;;;;;5057932;28;20052;-62
2022/08/17 11:01:49;;;;;;;8.77;7.65;;;;;;;;;;5058004;28;20048;-62
2022/08/17 11:04:24;;;;;;;12.43;8.13;;;;;;;;;;5062010;28;20055;-62
2022/08/17 11:06:53;;;;;;;15.85;10.02;;;;;;;;;;5060234;28;20041;-62
2022/08/17 11:09:27;;;;;;;12.20;8.60;;;;;;;;;;5057273;28;20044;-62
2022/08/17 11:12:15;;;;;;;19.05;12.15;;;;;;;;;;5066248;28;20135;-62
2022/08/17 11:14:56;;;;;;;18.23;13.32;;;;;;;;;;5065341;28;20060;-62
2022/08/17 11:17:53;;;;;;;21.95;11.50;;;;;;;;;;5062035;28;20479;-62
2022/08/17 11:20:28;;;;;;;24.70;10.57;;;;;;;;;;4984383;28;20366;-62
2022/08/17 11:23:07;;;;;;;17.88;11.23;;;;;;;;;;5039516;28;20455;-62
2022/08/17 11:25:37;;;;;;;24.10;12.27;;;;;;;;;;5066810;28;20106;-62
2022/08/17 11:28:10;;;;;;;17.38;11.73;;;;;;;;;;5065010;28;20155;-63
2022/08/17 11:30:46;;;;;;;22.88;14.85;;;;;;;;;;5062228;28;20060;-63
2022/08/17 11:33:32;;;;;;;21.52;15.15;;;;;;;;;;5062469;28;20198;-63
2022/08/17 11:36:02;;;;;;;18.95;12.63;;;;;;;;;;5062190;28;20513;-63
2022/08/17 11:38:35;;;;;;;22.23;12.70;;;;;;;;;;5064719;28;20061;-63
2022/08/17 11:41:09;;;;;;;21.15;15.02;;;;;;;;;;5065242;28;20051;-73
2022/08/17 11:43:54;;;;;;;16.45;13.75;;;;;;;;;;5057490;28;20192;-64
2022/08/17 11:51:32;;;;;;;24.75;17.85;;;;;;;;;;5069131;28;20141;-63
2022/08/17 11:52:15;;;;;;;22.08;18.85;;;;;;;;;;5060752;28;20049;-63
2022/08/17 11:54:44;;;;;;;22.95;19.02;;;;;;;;;;5062540;28;20102;-63
2022/08/17 11:57:44;;;;;;;30.40;22.83;;;;;;;;;;5061040;28;20053;-63
2022/08/17 12:00:35;;;;;;;29.73;23.80;;;;;;;;;;4981624;28;20058;-64
2022/08/17 12:03:25;;;;;;;31.15;22.10;;;;;;;;;;5058101;28;20102;-64
2022/08/17 12:06:01;;;;;;;25.40;18.27;;;;;;;;;;5069110;28;20051;-64
2022/08/17 12:08:29;;;;;;;24.15;17.92;;;;;;;;;;5067717;28;20084;-64
2022/08/17 12:11:02;;;;;;;20.85;16.52;;;;;;;;;;5058356;28;20133;-64
2022/08/17 12:13:30;;;;;;;19.15;15.88;;;;;;;;;;5059409;28;20057;-64
2022/08/17 12:15:59;;;;;;;25.63;17.48;;;;;;;;;;5072165;28;20059;-64
2022/08/17 12:18:29;;;;;;;19.90;14.73;;;;;;;;;;5064865;28;20064;-64
2022/08/17 12:21:07;;;;;;;22.65;17.73;;;;;;;;;;5064593;28;20583;-64
2022/08/17 12:23:39;;;;;;;20.92;14.38;;;;;;;;;;5068574;28;20407;-64
2022/08/17 12:26:11;;;;;;;21.02;13.90;;;;;;;;;;5063492;28;20062;-64
2022/08/17 12:28:39;;;;;;;19.48;13.45;;;;;;;;;;5076105;28;20048;-64
2022/08/17 12:31:08;;;;;;;20.95;14.82;;;;;;;;;;5063379;28;20060;-64
2022/08/17 12:33:42;;;;;;;19.17;13.40;;;;;;;;;;5063088;28;20045;-64
2022/08/17 12:36:13;;;;;;;17.02;11.82;;;;;;;;;;5062194;28;20045;-64
2022/08/17 12:38:42;;;;;;;13.40;11.60;;;;;;;;;;5062016;28;20056;-64
2022/08/17 12:41:27;;;;;;;17.48;11.10;;;;;;;;;;5063099;28;20501;-64
2022/08/17 12:44:00;;;;;;;16.33;10.77;;;;;;;;;;5063779;28;20057;-65
2022/08/17 12:46:28;;;;;;;14.63;9.88;;;;;;;;;;5063157;28;20488;-64
2022/08/17 12:49:11;;;;;;;15.27;9.07;;;;;;;;;;5067143;28;20068;-64
2022/08/17 12:51:42;;;;;;;12.50;8.25;;;;;;;;;;5059590;28;20658;-65
2022/08/17 12:54:21;;;;;;;11.07;7.57;;;;;;;;;;5057486;28;20052;-64
2022/08/17 12:56:48;;;;;;;12.65;8.55;;;;;;;;;;5052877;28;20067;-64
2022/08/17 12:59:17;;;;;;;11.95;7.80;;;;;;;;;;5061938;28;20048;-64
2022/08/17 13:01:45;;;;;;;10.15;6.55;;;;;;;;;;5064677;28;20052;-64
2022/08/17 13:04:14;;;;;;;12.60;6.65;;;;;;;;;;5059474;28;20126;-65
2022/08/17 13:06:47;;;;;;;10.63;6.88;;;;;;;;;;5059653;28;20370;-65
2022/08/17 13:09:15;;;;;;;15.27;6.75;;;;;;;;;;5063181;28;20048;-64
2022/08/17 13:11:47;;;;;;;11.82;6.68;;;;;;;;;;5060678;28;20064;-65
2022/08/17 13:14:17;;;;;;;15.55;6.97;;;;;;;;;;5056686;28;20133;-67
2022/08/17 13:16:48;;;;;;;10.23;7.57;;;;;;;;;;5054997;28;20075;-65
2022/08/17 13:19:20;;;;;;;10.63;5.93;;;;;;;;;;5057513;28;20120;-65
2022/08/17 13:21:50;;;;;;;15.65;7.03;;;;;;;;;;5058249;28;20097;-65
2022/08/17 13:24:19;;;;;;;9.82;6.38;;;;;;;;;;5060752;28;20044;-65
2022/08/17 13:26:47;;;;;;;11.73;6.05;;;;;;;;;;5061938;28;20396;-65
2022/08/17 13:29:22;;;;;;;10.02;6.57;;;;;;;;;;5060272;28;20671;-65
2022/08/17 13:31:50;;;;;;;10.65;6.05;;;;;;;;;;5059668;28;20053;-65
2022/08/17 13:34:20;;;;;;;16.10;6.82;;;;;;;;;;5059409;28;20838;-64
2022/08/17 13:36:48;;;;;;;14.85;6.30;;;;;;;;;;5054263;28;20049;-65
2022/08/17 13:39:17;;;;;;;15.52;6.97;;;;;;;;;;5060625;28;20060;-65
2022/08/17 13:41:45;;;;;;;9.45;6.28;;;;;;;;;;5060061;28;20048;-65
2022/08/17 13:44:33;;;;;;;10.98;6.55;;;;;;;;;;5058484;28;20053;-65
2022/08/17 13:47:01;;;;;;;11.63;6.50;;;;;;;;;;5050562;28;20554;-65
2022/08/17 13:49:30;;;;;;;8.82;6.63;;;;;;;;;;5052608;28;20120;-65
2022/08/17 13:51:58;;;;;;;10.60;5.82;;;;;;;;;;5055534;28;20106;-65
2022/08/17 13:54:27;;;;;;;13.70;6.95;;;;;;;;;;5059732;28;20056;-65
2022/08/17 13:56:59;;;;;;;13.25;7.07;;;;;;;;;;5060367;28;20112;-65
2022/08/17 13:59:29;;;;;;;14.60;6.25;;;;;;;;;;5066989;28;20619;-65
2022/08/17 14:01:56;;;;;;;11.02;6.20;;;;;;;;;;5065095;28;20056;-65
2022/08/17 14:04:26;;;;;;;10.40;6.07;;;;;;;;;;5061906;28;20385;-65
2022/08/17 14:06:58;;;;;;;11.65;6.10;;;;;;;;;;5059923;28;20048;-65
2022/08/17 14:09:27;;;;;;;9.88;6.35;;;;;;;;;;5057869;28;20048;-65
2022/08/17 14:11:54;;;;;;;12.65;5.93;;;;;;;;;;5061040;28;20055;-65
2022/08/17 14:14:22;;;;;;;10.70;6.13;;;;;;;;;;5057810;28;20048;-65
2022/08/17 14:16:50;;;;;;;9.35;5.43;;;;;;;;;;5058194;28;20148;-66
2022/08/17 14:19:17;;;;;;;7.22;4.70;;;;;;;;;;5059327;28;20052;-66
2022/08/17 14:21:46;;;;;;;10.48;5.28;;;;;;;;;;5066786;28;20060;-65
2022/08/17 14:24:20;;;;;;;7.88;5.10;;;;;;;;;;5068884;28;20762;-66
2022/08/17 14:26:48;;;;;;;11.80;5.68;;;;;;;;;;5061949;28;20056;-66
2022/08/17 14:29:15;;;;;;;9.00;5.13;;;;;;;;;;5060658;28;20453;-66
2022/08/17 14:31:42;;;;;;;12.80;5.32;;;;;;;;;;5058604;28;20059;-66
2022/08/17 14:34:10;;;;;;;10.02;5.35;;;;;;;;;;5066752;28;20074;-65
2022/08/17 14:36:39;;;;;;;10.90;5.07;;;;;;;;;;5067549;28;20052;-66
2022/08/17 14:39:06;;;;;;;7.18;4.93;;;;;;;;;;5063398;28;20107;-65
2022/08/17 14:41:35;;;;;;;9.25;5.63;;;;;;;;;;5059521;28;20791;-65
2022/08/17 14:44:03;;;;;;;9.63;5.43;;;;;;;;;;5062006;28;20037;-65
2022/08/17 14:46:30;;;;;;;14.23;6.47;;;;;;;;;;5061717;28;20585;-65
2022/08/17 14:48:58;;;;;;;8.63;5.40;;;;;;;;;;5061538;28;20052;-65
2022/08/17 14:51:28;;;;;;;8.07;5.43;;;;;;;;;;5063756;28;20559;-65
2022/08/17 14:53:56;;;;;;;18.98;7.07;;;;;;;;;;5062938;28;20500;-65
2022/08/17 14:56:24;;;;;;;13.75;6.50;;;;;;;;;;5061051;28;20572;-65
2022/08/17 14:58:52;;;;;;;14.93;6.95;;;;;;;;;;5066945;28;20360;-65
2022/08/17 15:01:20;;;;;;;13.23;7.07;;;;;;;;;;5063023;28;20075;-65
2022/08/17 15:03:48;;;;;;;18.80;8.80;;;;;;;;;;5063979;28;20048;-65
2022/08/17 15:06:16;;;;;;;15.77;8.80;;;;;;;;;;5065585;28;20076;-66